UAE1GP EDDF-OMDB
Flight info
| Callsign | UAE1GP |
|---|---|
| Flight time | N/A |
| Altitude | 35000 |
| Route | CINDY8S/18 CINDY Z74 LAMPU DCT NOMBO Y161 MAH DCT LATLO DCT OBEDI DCT BABOL DCT NISVA DCT USALI DCT OTKOK DCT RODIP DCT BELGI DCT KETEK UT38 VESAR L620 BAPAX/N0488F370 L620 BALMA UR655 LEBOR R655 KTN R785 RASLI P559 TRF R23 NEVOL N318 TAMRO T503 KSA M321 RESAL T533 RAPMA DCT KUVSO DCT KATIT DCT PEKEM M628 RIGIL G783 ELUDA/N0502F350 G783 ASPED Q308 KIPOK Q568 IMPED |
| Aircraft | B77W/H-SDE1E2E3FGHIJ2J3J4J5M1RWXY/LB1D1 |
Departure
| Time | 2026-05-05 18:07 |
|---|---|
| Airport | Frankfurt Main Airport (EDDF) |
Arrival
| Time | N/A |
|---|---|
| Airport | Dubai International Airport (OMDB) |
| Time | Latitude | Longitude | Altitude | Speed | Heading |
|---|---|---|---|---|---|
| 2026-05-05 16:56 | 50.05087 | 8.58853 | 378 ft | 0 kts | 341° |
| 2026-05-05 17:41 | 50.05080 | 8.58856 | 378 ft | 2 kts | 341° |
| 2026-05-05 17:41 | 50.05072 | 8.58861 | 378 ft | 2 kts | 341° |
| 2026-05-05 17:42 | 50.05058 | 8.58870 | 378 ft | 2 kts | 328° |
| 2026-05-05 17:42 | 50.05047 | 8.58884 | 378 ft | 2 kts | 315° |
| 2026-05-05 17:42 | 50.05037 | 8.58902 | 378 ft | 2 kts | 303° |
| 2026-05-05 17:42 | 50.05030 | 8.58922 | 378 ft | 2 kts | 291° |
| 2026-05-05 17:43 | 50.05026 | 8.58945 | 378 ft | 2 kts | 279° |
| 2026-05-05 17:43 | 50.05025 | 8.58968 | 378 ft | 2 kts | 267° |
| 2026-05-05 17:43 | 50.05027 | 8.58991 | 378 ft | 2 kts | 255° |
| 2026-05-05 17:43 | 50.05029 | 8.59004 | 378 ft | 0 kts | 250° |
| 2026-05-05 17:44 | 50.05029 | 8.59003 | 378 ft | 0 kts | 250° |
| 2026-05-05 17:47 | 50.05023 | 8.58978 | 378 ft | 5 kts | 250° |
| 2026-05-05 17:48 | 50.05002 | 8.58891 | 378 ft | 11 kts | 250° |
| 2026-05-05 17:48 | 50.04970 | 8.58756 | 378 ft | 13 kts | 250° |
| 2026-05-05 17:48 | 50.04913 | 8.58682 | 378 ft | 11 kts | 177° |
| 2026-05-05 17:48 | 50.04841 | 8.58713 | 378 ft | 10 kts | 161° |
| 2026-05-05 17:49 | 50.04778 | 8.58746 | 378 ft | 8 kts | 163° |
| 2026-05-05 17:49 | 50.04723 | 8.58731 | 378 ft | 7 kts | 220° |
| 2026-05-05 17:49 | 50.04697 | 8.58662 | 378 ft | 7 kts | 249° |
| 2026-05-05 17:49 | 50.04677 | 8.58580 | 378 ft | 8 kts | 249° |
| 2026-05-05 17:50 | 50.04653 | 8.58480 | 378 ft | 11 kts | 250° |
| 2026-05-05 17:50 | 50.04618 | 8.58330 | 378 ft | 17 kts | 250° |
| 2026-05-05 17:50 | 50.04568 | 8.58122 | 378 ft | 21 kts | 250° |
| 2026-05-05 17:50 | 50.04520 | 8.57922 | 378 ft | 18 kts | 250° |
| 2026-05-05 17:51 | 50.04491 | 8.57805 | 378 ft | 6 kts | 250° |
| 2026-05-05 17:51 | 50.04488 | 8.57789 | 378 ft | 0 kts | 250° |
| 2026-05-05 17:51 | 50.04485 | 8.57780 | 378 ft | 3 kts | 250° |
| 2026-05-05 17:52 | 50.04461 | 8.57679 | 378 ft | 15 kts | 250° |
| 2026-05-05 17:52 | 50.04415 | 8.57485 | 378 ft | 20 kts | 250° |
| 2026-05-05 17:52 | 50.04368 | 8.57289 | 378 ft | 18 kts | 251° |
| 2026-05-05 17:52 | 50.04327 | 8.57113 | 378 ft | 16 kts | 250° |
| 2026-05-05 17:53 | 50.04289 | 8.56959 | 378 ft | 14 kts | 250° |
| 2026-05-05 17:53 | 50.04292 | 8.56841 | 378 ft | 11 kts | 340° |
| 2026-05-05 17:53 | 50.04366 | 8.56833 | 378 ft | 10 kts | 7° |
| 2026-05-05 17:53 | 50.04430 | 8.56827 | 378 ft | 6 kts | 323° |
| 2026-05-05 17:54 | 50.04434 | 8.56766 | 378 ft | 8 kts | 253° |
| 2026-05-05 17:54 | 50.04406 | 8.56641 | 378 ft | 15 kts | 250° |
| 2026-05-05 17:54 | 50.04369 | 8.56484 | 378 ft | 15 kts | 250° |
| 2026-05-05 17:54 | 50.04332 | 8.56333 | 378 ft | 14 kts | 250° |
| 2026-05-05 17:55 | 50.04296 | 8.56181 | 378 ft | 15 kts | 250° |
| 2026-05-05 17:55 | 50.04259 | 8.56026 | 378 ft | 15 kts | 250° |
| 2026-05-05 17:55 | 50.04221 | 8.55870 | 378 ft | 15 kts | 250° |
| 2026-05-05 17:55 | 50.04183 | 8.55709 | 378 ft | 16 kts | 250° |
| 2026-05-05 17:56 | 50.04141 | 8.55531 | 378 ft | 18 kts | 250° |
| 2026-05-05 17:56 | 50.04095 | 8.55339 | 378 ft | 19 kts | 250° |
| 2026-05-05 17:56 | 50.04046 | 8.55132 | 378 ft | 21 kts | 249° |
| 2026-05-05 17:56 | 50.03992 | 8.54910 | 378 ft | 22 kts | 250° |
| 2026-05-05 17:57 | 50.03937 | 8.54680 | 378 ft | 23 kts | 250° |
| 2026-05-05 17:57 | 50.03878 | 8.54435 | 378 ft | 24 kts | 246° |
| 2026-05-05 17:57 | 50.03799 | 8.54213 | 378 ft | 23 kts | 246° |
| 2026-05-05 17:57 | 50.03739 | 8.53971 | 378 ft | 24 kts | 250° |
| 2026-05-05 17:58 | 50.03685 | 8.53742 | 378 ft | 20 kts | 250° |
| 2026-05-05 17:58 | 50.03636 | 8.53547 | 378 ft | 18 kts | 249° |
| 2026-05-05 17:58 | 50.03593 | 8.53373 | 378 ft | 16 kts | 250° |
| 2026-05-05 17:58 | 50.03556 | 8.53218 | 378 ft | 14 kts | 250° |
| 2026-05-05 17:59 | 50.03524 | 8.53082 | 378 ft | 12 kts | 250° |
| 2026-05-05 17:59 | 50.03505 | 8.53002 | 378 ft | 3 kts | 250° |
| 2026-05-05 17:59 | 50.03502 | 8.52988 | 378 ft | 0 kts | 250° |
| 2026-05-05 18:00 | 50.03498 | 8.52976 | 378 ft | 3 kts | 250° |
| 2026-05-05 18:00 | 50.03489 | 8.52938 | 378 ft | 3 kts | 249° |
| 2026-05-05 18:00 | 50.03480 | 8.52905 | 378 ft | 3 kts | 247° |
| 2026-05-05 18:00 | 50.03473 | 8.52878 | 378 ft | 2 kts | 246° |
| 2026-05-05 18:01 | 50.03470 | 8.52868 | 378 ft | 0 kts | 246° |
| 2026-05-05 18:02 | 50.03468 | 8.52859 | 378 ft | 2 kts | 246° |
| 2026-05-05 18:02 | 50.03456 | 8.52817 | 378 ft | 4 kts | 248° |
| 2026-05-05 18:02 | 50.03448 | 8.52788 | 378 ft | 0 kts | 248° |
| 2026-05-05 18:03 | 50.03448 | 8.52787 | 378 ft | 0 kts | 248° |
| 2026-05-05 18:04 | 50.03440 | 8.52756 | 378 ft | 5 kts | 248° |
| 2026-05-05 18:04 | 50.03422 | 8.52684 | 378 ft | 7 kts | 248° |
| 2026-05-05 18:04 | 50.03402 | 8.52620 | 378 ft | 6 kts | 229° |
| 2026-05-05 18:04 | 50.03350 | 8.52591 | 378 ft | 8 kts | 184° |
| 2026-05-05 18:05 | 50.03334 | 8.52591 | 378 ft | 0 kts | 179° |
| 2026-05-05 18:06 | 50.03310 | 8.52591 | 378 ft | 13 kts | 180° |
| 2026-05-05 18:06 | 50.02964 | 8.52594 | 378 ft | 88 kts | 180° |
| 2026-05-05 18:07 | 50.02096 | 8.52603 | 378 ft | 158 kts | 180° |
| 2026-05-05 18:07 | 50.00891 | 8.52620 | 807 ft | 181 kts | 181° |
| 2026-05-05 18:07 | 49.99612 | 8.52626 | 1534 ft | 191 kts | 182° |
| 2026-05-05 18:07 | 49.98254 | 8.52654 | 2040 ft | 205 kts | 175° |
| 2026-05-05 18:08 | 49.96852 | 8.53340 | 2477 ft | 224 kts | 150° |
| 2026-05-05 18:08 | 49.95711 | 8.55021 | 3093 ft | 236 kts | 123° |
| 2026-05-05 18:08 | 49.94917 | 8.57285 | 3761 ft | 243 kts | 119° |
| 2026-05-05 18:08 | 49.94238 | 8.59729 | 4156 ft | 255 kts | 103° |
| 2026-05-05 18:09 | 49.93999 | 8.62462 | 4784 ft | 268 kts | 96° |
| 2026-05-05 18:09 | 49.93874 | 8.65435 | 5455 ft | 280 kts | 95° |
| 2026-05-05 18:09 | 49.93527 | 8.68373 | 6235 ft | 282 kts | 116° |
| 2026-05-05 18:09 | 49.92430 | 8.70801 | 7031 ft | 281 kts | 140° |
| 2026-05-05 18:10 | 49.90911 | 8.72693 | 7927 ft | 282 kts | 147° |
| 2026-05-05 18:10 | 49.89338 | 8.74450 | 8784 ft | 284 kts | 144° |
| 2026-05-05 18:10 | 49.88018 | 8.76780 | 9660 ft | 289 kts | 126° |
| 2026-05-05 18:10 | 49.86972 | 8.79498 | 10338 ft | 299 kts | 122° |
| 2026-05-05 18:11 | 49.85938 | 8.82374 | 10751 ft | 318 kts | 122° |
| 2026-05-05 18:11 | 49.84828 | 8.85457 | 11143 ft | 337 kts | 121° |
| 2026-05-05 18:11 | 49.83656 | 8.88698 | 11560 ft | 356 kts | 121° |
| 2026-05-05 18:11 | 49.82415 | 8.92118 | 12018 ft | 374 kts | 121° |
| 2026-05-05 18:12 | 49.81100 | 8.95736 | 12516 ft | 390 kts | 121° |
| 2026-05-05 18:12 | 49.79756 | 8.99427 | 13156 ft | 401 kts | 121° |
| 2026-05-05 18:12 | 49.78380 | 9.03205 | 14075 ft | 404 kts | 121° |
| 2026-05-05 18:12 | 49.77000 | 9.07027 | 15005 ft | 407 kts | 119° |
| 2026-05-05 18:13 | 49.75925 | 9.11062 | 15948 ft | 410 kts | 111° |
| 2026-05-05 18:13 | 49.74856 | 9.15071 | 16753 ft | 412 kts | 119° |
| 2026-05-05 18:13 | 49.73354 | 9.18868 | 17513 ft | 415 kts | 126° |
| 2026-05-05 18:13 | 49.71684 | 9.22481 | 18253 ft | 419 kts | 128° |
| 2026-05-05 18:14 | 49.69922 | 9.26065 | 19104 ft | 421 kts | 129° |
| 2026-05-05 18:14 | 49.68091 | 9.29638 | 19966 ft | 423 kts | 130° |
| 2026-05-05 18:14 | 49.66226 | 9.33165 | 20741 ft | 426 kts | 130° |
| 2026-05-05 18:14 | 49.64337 | 9.36656 | 21433 ft | 431 kts | 131° |
| 2026-05-05 18:15 | 49.62307 | 9.40090 | 22180 ft | 433 kts | 137° |
| 2026-05-05 18:15 | 49.59996 | 9.42978 | 22910 ft | 435 kts | 146° |
| 2026-05-05 18:15 | 49.57418 | 9.45464 | 23608 ft | 438 kts | 149° |
| 2026-05-05 18:15 | 49.54790 | 9.47881 | 24364 ft | 440 kts | 149° |
| 2026-05-05 18:16 | 49.52178 | 9.50272 | 25104 ft | 442 kts | 149° |
| 2026-05-05 18:16 | 49.49552 | 9.52672 | 25702 ft | 446 kts | 149° |
| 2026-05-05 18:16 | 49.46865 | 9.55124 | 26275 ft | 451 kts | 149° |
| 2026-05-05 18:16 | 49.44141 | 9.57605 | 26919 ft | 454 kts | 149° |
| 2026-05-05 18:17 | 49.41415 | 9.60085 | 27551 ft | 457 kts | 149° |
| 2026-05-05 18:17 | 49.38679 | 9.62570 | 28148 ft | 460 kts | 149° |
| 2026-05-05 18:17 | 49.35932 | 9.65078 | 28737 ft | 462 kts | 148° |
| 2026-05-05 18:17 | 49.33345 | 9.67972 | 29303 ft | 465 kts | 140° |
| 2026-05-05 18:18 | 49.30977 | 9.71397 | 30019 ft | 465 kts | 136° |
| 2026-05-05 18:18 | 49.28729 | 9.74837 | 30683 ft | 462 kts | 136° |
| 2026-05-05 18:18 | 49.26439 | 9.78343 | 30818 ft | 463 kts | 136° |
| 2026-05-05 18:19 | 49.21911 | 9.85254 | 30828 ft | 462 kts | 136° |
| 2026-05-05 18:19 | 49.19677 | 9.88770 | 31072 ft | 469 kts | 132° |
| 2026-05-05 18:19 | 49.17656 | 9.92690 | 31809 ft | 466 kts | 129° |
| 2026-05-05 18:19 | 49.15744 | 9.96577 | 32687 ft | 458 kts | 129° |
| 2026-05-05 18:20 | 49.13854 | 10.00420 | 33353 ft | 454 kts | 129° |
| 2026-05-05 18:20 | 49.11934 | 10.04315 | 33815 ft | 455 kts | 129° |
| 2026-05-05 18:20 | 49.10036 | 10.08161 | 34221 ft | 456 kts | 129° |
| 2026-05-05 18:20 | 49.08137 | 10.12002 | 34609 ft | 457 kts | 129° |
| 2026-05-05 18:21 | 49.06227 | 10.15861 | 34817 ft | 460 kts | 129° |
| 2026-05-05 18:21 | 49.02384 | 10.23610 | 34820 ft | 457 kts | 129° |
| 2026-05-05 18:22 | 48.98585 | 10.31247 | 34812 ft | 455 kts | 129° |
| 2026-05-05 18:22 | 48.94736 | 10.38960 | 34812 ft | 456 kts | 129° |
| 2026-05-05 18:23 | 48.90935 | 10.46557 | 34813 ft | 456 kts | 129° |
| 2026-05-05 18:23 | 48.87131 | 10.54140 | 34821 ft | 456 kts | 129° |
| 2026-05-05 18:24 | 48.83314 | 10.61727 | 34832 ft | 456 kts | 129° |
| 2026-05-05 18:24 | 48.79445 | 10.69395 | 34824 ft | 455 kts | 130° |
| 2026-05-05 18:25 | 48.75610 | 10.76972 | 34836 ft | 457 kts | 130° |
| 2026-05-05 18:25 | 48.71762 | 10.84556 | 34833 ft | 455 kts | 130° |
| 2026-05-05 18:26 | 48.67886 | 10.92172 | 34827 ft | 457 kts | 131° |
| 2026-05-05 18:26 | 48.64014 | 10.99759 | 34836 ft | 458 kts | 131° |
| 2026-05-05 18:27 | 48.60117 | 11.07373 | 34828 ft | 457 kts | 131° |
| 2026-05-05 18:27 | 48.56217 | 11.14973 | 34813 ft | 460 kts | 131° |
| 2026-05-05 18:28 | 48.50332 | 11.26396 | 34823 ft | 462 kts | 131° |
| 2026-05-05 18:28 | 48.46350 | 11.34100 | 34805 ft | 465 kts | 132° |
| 2026-05-05 18:29 | 48.42326 | 11.41860 | 34821 ft | 468 kts | 131° |
| 2026-05-05 18:29 | 48.38329 | 11.49549 | 34814 ft | 470 kts | 132° |
| 2026-05-05 18:30 | 48.34265 | 11.57344 | 34806 ft | 470 kts | 132° |
| 2026-05-05 18:30 | 48.30246 | 11.65030 | 34809 ft | 472 kts | 133° |
| 2026-05-05 18:31 | 48.26171 | 11.72801 | 34814 ft | 475 kts | 133° |
| 2026-05-05 18:31 | 48.22066 | 11.80607 | 34811 ft | 474 kts | 132° |
| 2026-05-05 18:32 | 48.17960 | 11.88391 | 34818 ft | 479 kts | 132° |
| 2026-05-05 18:32 | 48.13854 | 11.96154 | 34811 ft | 479 kts | 133° |
| 2026-05-05 18:33 | 48.09688 | 12.04007 | 34818 ft | 481 kts | 132° |
| 2026-05-05 18:33 | 48.05501 | 12.11879 | 34830 ft | 484 kts | 132° |
| 2026-05-05 18:34 | 48.01304 | 12.19745 | 34835 ft | 484 kts | 132° |
| 2026-05-05 18:34 | 47.97094 | 12.27614 | 34832 ft | 484 kts | 132° |
| 2026-05-05 18:35 | 47.92858 | 12.35506 | 34835 ft | 486 kts | 132° |
| 2026-05-05 18:35 | 47.88648 | 12.43331 | 34858 ft | 487 kts | 132° |
| 2026-05-05 18:36 | 47.84392 | 12.51216 | 34853 ft | 487 kts | 132° |
| 2026-05-05 18:36 | 47.80148 | 12.59058 | 34864 ft | 488 kts | 131° |
| 2026-05-05 18:37 | 47.75888 | 12.66906 | 34874 ft | 488 kts | 132° |
| 2026-05-05 18:37 | 47.71629 | 12.74729 | 34875 ft | 488 kts | 133° |
| 2026-05-05 18:38 | 47.67182 | 12.82391 | 34862 ft | 485 kts | 138° |
| 2026-05-05 18:38 | 47.62429 | 12.89472 | 34882 ft | 487 kts | 138° |
| 2026-05-05 18:39 | 47.57627 | 12.96578 | 34884 ft | 488 kts | 138° |
| 2026-05-05 18:39 | 47.52803 | 13.03690 | 34884 ft | 489 kts | 138° |
| 2026-05-05 18:40 | 47.48006 | 13.10741 | 34910 ft | 491 kts | 138° |
| 2026-05-05 18:40 | 47.43132 | 13.17885 | 34893 ft | 489 kts | 138° |
| 2026-05-05 18:41 | 47.38312 | 13.24927 | 34885 ft | 489 kts | 138° |
| 2026-05-05 18:41 | 47.33489 | 13.32076 | 34897 ft | 491 kts | 133° |
| 2026-05-05 18:42 | 47.29538 | 13.40329 | 34914 ft | 496 kts | 125° |
| 2026-05-05 18:42 | 47.25802 | 13.48875 | 34906 ft | 496 kts | 125° |
| 2026-05-05 18:43 | 47.22069 | 13.57376 | 34925 ft | 497 kts | 125° |
| 2026-05-05 18:43 | 47.18362 | 13.65783 | 34894 ft | 496 kts | 126° |
| 2026-05-05 18:44 | 47.14614 | 13.74255 | 34895 ft | 498 kts | 126° |
| 2026-05-05 18:44 | 47.10818 | 13.82803 | 34886 ft | 497 kts | 126° |
| 2026-05-05 18:45 | 47.07056 | 13.91246 | 34890 ft | 497 kts | 126° |
| 2026-05-05 18:45 | 47.03268 | 13.99721 | 34852 ft | 498 kts | 126° |
| 2026-05-05 18:46 | 46.99482 | 14.08169 | 34901 ft | 497 kts | 125° |
| 2026-05-05 18:46 | 46.95665 | 14.16657 | 34921 ft | 497 kts | 126° |
| 2026-05-05 18:47 | 46.91862 | 14.25085 | 34914 ft | 501 kts | 126° |
| 2026-05-05 18:47 | 46.88022 | 14.33573 | 34884 ft | 498 kts | 125° |
| 2026-05-05 18:48 | 46.84176 | 14.42048 | 34905 ft | 500 kts | 125° |
| 2026-05-05 18:48 | 46.80328 | 14.50499 | 34907 ft | 502 kts | 125° |
| 2026-05-05 18:49 | 46.76478 | 14.58930 | 34916 ft | 502 kts | 125° |
| 2026-05-05 18:49 | 46.72584 | 14.67433 | 34905 ft | 502 kts | 126° |
| 2026-05-05 18:50 | 46.68722 | 14.75840 | 34893 ft | 502 kts | 126° |
| 2026-05-05 18:50 | 46.64835 | 14.84274 | 34890 ft | 502 kts | 126° |
| 2026-05-05 18:51 | 46.60933 | 14.92715 | 34886 ft | 503 kts | 126° |
| 2026-05-05 18:51 | 46.57046 | 15.01100 | 34901 ft | 502 kts | 126° |
| 2026-05-05 18:52 | 46.53120 | 15.09542 | 34876 ft | 505 kts | 126° |
| 2026-05-05 18:52 | 46.49209 | 15.17928 | 34895 ft | 502 kts | 126° |
| 2026-05-05 18:53 | 46.45277 | 15.26332 | 34898 ft | 503 kts | 126° |
| 2026-05-05 18:53 | 46.41332 | 15.34739 | 34913 ft | 505 kts | 126° |
| 2026-05-05 18:54 | 46.37383 | 15.43130 | 34918 ft | 504 kts | 126° |
| 2026-05-05 18:54 | 46.33406 | 15.51553 | 34914 ft | 506 kts | 126° |
| 2026-05-05 18:55 | 46.29405 | 15.60004 | 34914 ft | 504 kts | 125° |
| 2026-05-05 18:55 | 46.25435 | 15.68364 | 34895 ft | 505 kts | 126° |
| 2026-05-05 18:56 | 46.18479 | 15.82949 | 34907 ft | 505 kts | 126° |
| 2026-05-05 18:56 | 46.10439 | 15.99715 | 34896 ft | 506 kts | 126° |
| 2026-05-05 18:57 | 46.02387 | 16.16406 | 34927 ft | 506 kts | 126° |
| 2026-05-05 18:57 | 45.94314 | 16.33043 | 34922 ft | 508 kts | 126° |
| 2026-05-05 18:58 | 45.86224 | 16.49618 | 34926 ft | 506 kts | 126° |
| 2026-05-05 18:58 | 45.78200 | 16.65958 | 34929 ft | 515 kts | 126° |
| 2026-05-05 18:59 | 45.69936 | 16.82695 | 34926 ft | 505 kts | 127° |
| 2026-05-05 18:59 | 45.61765 | 16.99140 | 34936 ft | 512 kts | 127° |
| 2026-05-05 19:00 | 45.53520 | 17.15642 | 34941 ft | 508 kts | 126° |
| 2026-05-05 19:00 | 45.45397 | 17.31806 | 34957 ft | 506 kts | 127° |
| 2026-05-05 19:01 | 45.37051 | 17.48315 | 34951 ft | 515 kts | 126° |
| 2026-05-05 19:01 | 45.28792 | 17.64566 | 34959 ft | 502 kts | 127° |
| 2026-05-05 19:02 | 45.20598 | 17.80589 | 34976 ft | 514 kts | 127° |
| 2026-05-05 19:02 | 45.12206 | 17.96913 | 34919 ft | 509 kts | 127° |
| 2026-05-05 19:03 | 45.03948 | 18.12885 | 34947 ft | 508 kts | 127° |
| 2026-05-05 19:03 | 44.95499 | 18.29130 | 34961 ft | 515 kts | 127° |
| 2026-05-05 19:04 | 44.87103 | 18.45190 | 34947 ft | 503 kts | 127° |
| 2026-05-05 19:04 | 44.78688 | 18.61187 | 34984 ft | 516 kts | 127° |
| 2026-05-05 19:05 | 44.71122 | 18.78369 | 34968 ft | 510 kts | 119° |
| 2026-05-05 19:05 | 44.64346 | 18.95727 | 35006 ft | 510 kts | 120° |
| 2026-05-05 19:06 | 44.57354 | 19.13165 | 34983 ft | 516 kts | 120° |
| 2026-05-05 19:06 | 44.50333 | 19.30392 | 34993 ft | 505 kts | 120° |
| 2026-05-05 19:07 | 44.43201 | 19.47701 | 34990 ft | 518 kts | 120° |
| 2026-05-05 19:07 | 44.36023 | 19.64988 | 35001 ft | 508 kts | 120° |
| 2026-05-05 19:08 | 44.28944 | 19.81918 | 35021 ft | 511 kts | 121° |
| 2026-05-05 19:08 | 44.23342 | 19.95240 | 34985 ft | 514 kts | 121° |
| 2026-05-05 19:09 | 44.19752 | 20.03743 | 34987 ft | 510 kts | 121° |
| 2026-05-05 19:09 | 44.16141 | 20.12270 | 34985 ft | 512 kts | 121° |
| 2026-05-05 19:10 | 44.12514 | 20.20811 | 34995 ft | 512 kts | 120° |
| 2026-05-05 19:10 | 44.08902 | 20.29289 | 34986 ft | 511 kts | 120° |
| 2026-05-05 19:11 | 44.05261 | 20.37808 | 34994 ft | 513 kts | 120° |
| 2026-05-05 19:11 | 44.01624 | 20.46295 | 34997 ft | 512 kts | 120° |
| 2026-05-05 19:12 | 43.97986 | 20.54757 | 34991 ft | 513 kts | 120° |
| 2026-05-05 19:12 | 43.94318 | 20.63267 | 34989 ft | 513 kts | 120° |
| 2026-05-05 19:13 | 43.90659 | 20.71730 | 35004 ft | 512 kts | 121° |
| 2026-05-05 19:13 | 43.86970 | 20.80234 | 34992 ft | 512 kts | 121° |
| 2026-05-05 19:14 | 43.83309 | 20.88651 | 34967 ft | 510 kts | 121° |
| 2026-05-05 19:14 | 43.79636 | 20.97071 | 34991 ft | 514 kts | 121° |
| 2026-05-05 19:15 | 43.72716 | 21.12870 | 35021 ft | 513 kts | 121° |
| 2026-05-05 19:15 | 43.65303 | 21.29697 | 35001 ft | 514 kts | 120° |
| 2026-05-05 19:16 | 43.57887 | 21.46435 | 35014 ft | 513 kts | 120° |
| 2026-05-05 19:16 | 43.50395 | 21.63246 | 35020 ft | 515 kts | 120° |
| 2026-05-05 19:17 | 43.42871 | 21.80032 | 35003 ft | 513 kts | 121° |
| 2026-05-05 19:17 | 43.35343 | 21.96733 | 35004 ft | 515 kts | 121° |
| 2026-05-05 19:18 | 43.27813 | 22.13342 | 35016 ft | 513 kts | 121° |
| 2026-05-05 19:18 | 43.20240 | 22.29952 | 35027 ft | 515 kts | 120° |
| 2026-05-05 19:19 | 43.12658 | 22.46488 | 35053 ft | 513 kts | 120° |
| 2026-05-05 19:19 | 43.05023 | 22.63046 | 35073 ft | 516 kts | 120° |
| 2026-05-05 19:20 | 42.96759 | 22.79003 | 35085 ft | 514 kts | 132° |
| 2026-05-05 19:20 | 42.81808 | 22.99108 | 35053 ft | 523 kts | 135° |
| 2026-05-05 19:21 | 42.64663 | 23.21557 | 35061 ft | 515 kts | 135° |
| 2026-05-05 19:21 | 42.54318 | 23.35016 | 35074 ft | 522 kts | 135° |
| 2026-05-05 19:22 | 42.43777 | 23.48662 | 35090 ft | 520 kts | 135° |
| 2026-05-05 19:22 | 42.33367 | 23.62070 | 35098 ft | 518 kts | 135° |
| 2026-05-05 19:23 | 42.22784 | 23.75640 | 35105 ft | 523 kts | 135° |
| 2026-05-05 19:23 | 42.12391 | 23.88898 | 35093 ft | 514 kts | 135° |
| 2026-05-05 19:24 | 42.01855 | 24.02279 | 35087 ft | 527 kts | 135° |
| 2026-05-05 19:24 | 41.91296 | 24.15621 | 35079 ft | 514 kts | 135° |
| 2026-05-05 19:25 | 41.80769 | 24.28861 | 35094 ft | 523 kts | 135° |
| 2026-05-05 19:25 | 41.62128 | 24.52157 | 35114 ft | 528 kts | 135° |
| 2026-05-05 19:26 | 41.40644 | 24.78759 | 35096 ft | 520 kts | 136° |
| 2026-05-05 19:26 | 41.19159 | 25.05125 | 35012 ft | 535 kts | 136° |
| 2026-05-05 19:27 | 41.05045 | 25.22306 | 35058 ft | 526 kts | 136° |
| 2026-05-05 19:27 | 40.99640 | 25.28858 | 35060 ft | 528 kts | 136° |
| 2026-05-05 19:28 | 40.94276 | 25.35345 | 35061 ft | 527 kts | 136° |
| 2026-05-05 19:28 | 40.88850 | 25.41893 | 35050 ft | 528 kts | 135° |
| 2026-05-05 19:29 | 40.83433 | 25.48414 | 35047 ft | 528 kts | 136° |
| 2026-05-05 19:29 | 40.77993 | 25.54948 | 35042 ft | 529 kts | 135° |
| 2026-05-05 19:30 | 40.72547 | 25.61474 | 35042 ft | 529 kts | 135° |
| 2026-05-05 19:30 | 40.67082 | 25.68008 | 35043 ft | 530 kts | 136° |
| 2026-05-05 19:31 | 40.61644 | 25.74495 | 35042 ft | 530 kts | 136° |
| 2026-05-05 19:31 | 40.56168 | 25.81011 | 35042 ft | 531 kts | 136° |
| 2026-05-05 19:32 | 40.50806 | 25.87520 | 35036 ft | 528 kts | 130° |
| 2026-05-05 19:32 | 40.46452 | 25.95257 | 35046 ft | 526 kts | 119° |
| 2026-05-05 19:33 | 40.42508 | 26.03336 | 35043 ft | 525 kts | 119° |
| 2026-05-05 19:33 | 40.38573 | 26.11336 | 35022 ft | 525 kts | 119° |
| 2026-05-05 19:34 | 40.34605 | 26.19352 | 35052 ft | 524 kts | 119° |
| 2026-05-05 19:35 | 40.28651 | 26.31312 | 35054 ft | 523 kts | 120° |
| 2026-05-05 19:35 | 40.24684 | 26.39245 | 35050 ft | 523 kts | 120° |
| 2026-05-05 19:36 | 40.20678 | 26.47234 | 35062 ft | 524 kts | 120° |
| 2026-05-05 19:36 | 40.16690 | 26.55163 | 35058 ft | 524 kts | 120° |
| 2026-05-05 19:37 | 40.12696 | 26.63080 | 35057 ft | 522 kts | 120° |
| 2026-05-05 19:37 | 40.08701 | 26.70983 | 35054 ft | 522 kts | 121° |
| 2026-05-05 19:38 | 40.04695 | 26.78885 | 35056 ft | 523 kts | 121° |
| 2026-05-05 19:38 | 40.00687 | 26.86772 | 35052 ft | 522 kts | 121° |
| 2026-05-05 19:39 | 39.96673 | 26.94650 | 35066 ft | 522 kts | 121° |
| 2026-05-05 19:39 | 39.92665 | 27.02498 | 35067 ft | 522 kts | 121° |
| 2026-05-05 19:40 | 39.88629 | 27.10379 | 35065 ft | 521 kts | 121° |
| 2026-05-05 19:40 | 39.84632 | 27.18167 | 35058 ft | 521 kts | 121° |
| 2026-05-05 19:41 | 39.80604 | 27.25994 | 35062 ft | 521 kts | 121° |
| 2026-05-05 19:41 | 39.76590 | 27.33774 | 35054 ft | 521 kts | 121° |
| 2026-05-05 19:42 | 39.72549 | 27.41589 | 35055 ft | 519 kts | 121° |
| 2026-05-05 19:42 | 39.68524 | 27.49353 | 35055 ft | 521 kts | 121° |
| 2026-05-05 19:43 | 39.64486 | 27.57123 | 35062 ft | 520 kts | 121° |
| 2026-05-05 19:43 | 39.60452 | 27.64866 | 35063 ft | 521 kts | 121° |
| 2026-05-05 19:44 | 39.56397 | 27.72631 | 35055 ft | 521 kts | 122° |
| 2026-05-05 19:44 | 39.52320 | 27.80419 | 35066 ft | 522 kts | 122° |
| 2026-05-05 19:45 | 39.48286 | 27.88105 | 35062 ft | 519 kts | 122° |
| 2026-05-05 19:45 | 39.44212 | 27.95850 | 35066 ft | 520 kts | 122° |
| 2026-05-05 19:46 | 39.40148 | 28.03558 | 35067 ft | 521 kts | 122° |
| 2026-05-05 19:46 | 39.36077 | 28.11258 | 35068 ft | 519 kts | 122° |
| 2026-05-05 19:47 | 39.31988 | 28.18975 | 35066 ft | 521 kts | 122° |
| 2026-05-05 19:47 | 39.27906 | 28.26660 | 35072 ft | 520 kts | 122° |
| 2026-05-05 19:48 | 39.23816 | 28.34341 | 35071 ft | 519 kts | 122° |
| 2026-05-05 19:48 | 39.19729 | 28.41998 | 35073 ft | 518 kts | 122° |
| 2026-05-05 19:49 | 39.15652 | 28.49620 | 35075 ft | 520 kts | 122° |
| 2026-05-05 19:49 | 39.11549 | 28.57270 | 35068 ft | 518 kts | 122° |
| 2026-05-05 19:50 | 39.07456 | 28.64884 | 35067 ft | 517 kts | 122° |
| 2026-05-05 19:50 | 39.03361 | 28.72484 | 35057 ft | 520 kts | 123° |
| 2026-05-05 19:51 | 38.99269 | 28.80061 | 35054 ft | 519 kts | 123° |
| 2026-05-05 19:51 | 38.95130 | 28.87705 | 35055 ft | 519 kts | 123° |
| 2026-05-05 19:52 | 38.91020 | 28.95279 | 35054 ft | 519 kts | 123° |
| 2026-05-05 19:52 | 38.86908 | 29.02839 | 35048 ft | 517 kts | 123° |
| 2026-05-05 19:53 | 38.82796 | 29.10383 | 35049 ft | 519 kts | 123° |
| 2026-05-05 19:53 | 38.78659 | 29.17952 | 35056 ft | 517 kts | 123° |
| 2026-05-05 19:54 | 38.74524 | 29.25501 | 35058 ft | 518 kts | 123° |
| 2026-05-05 19:54 | 38.70416 | 29.32982 | 35054 ft | 517 kts | 123° |
| 2026-05-05 19:55 | 38.66267 | 29.40523 | 35043 ft | 517 kts | 123° |
| 2026-05-05 19:55 | 38.62121 | 29.48038 | 35046 ft | 516 kts | 123° |
| 2026-05-05 19:56 | 38.58009 | 29.55476 | 35046 ft | 517 kts | 123° |
| 2026-05-05 19:56 | 38.53837 | 29.63005 | 35046 ft | 516 kts | 123° |
| 2026-05-05 19:57 | 38.49703 | 29.70449 | 35035 ft | 516 kts | 124° |
| 2026-05-05 19:57 | 38.45551 | 29.77906 | 35034 ft | 517 kts | 124° |
| 2026-05-05 19:58 | 38.41377 | 29.85388 | 35041 ft | 516 kts | 124° |
| 2026-05-05 19:58 | 38.37225 | 29.92811 | 35047 ft | 515 kts | 124° |
| 2026-05-05 19:59 | 38.33055 | 30.00252 | 35051 ft | 518 kts | 124° |
| 2026-05-05 19:59 | 38.28878 | 30.07686 | 35051 ft | 518 kts | 124° |
| 2026-05-05 20:00 | 38.24701 | 30.15106 | 35053 ft | 516 kts | 124° |
| 2026-05-05 20:00 | 38.20528 | 30.22499 | 35050 ft | 517 kts | 124° |
| 2026-05-05 20:01 | 38.16309 | 30.29959 | 35051 ft | 519 kts | 124° |
| 2026-05-05 20:01 | 38.12107 | 30.37371 | 35053 ft | 518 kts | 124° |
| 2026-05-05 20:02 | 38.07903 | 30.44769 | 35046 ft | 518 kts | 125° |
| 2026-05-05 20:02 | 38.03693 | 30.52162 | 35056 ft | 517 kts | 124° |
| 2026-05-05 20:03 | 37.99466 | 30.59567 | 35057 ft | 517 kts | 125° |
| 2026-05-05 20:03 | 37.95258 | 30.66924 | 35051 ft | 518 kts | 126° |
| 2026-05-05 20:04 | 37.91040 | 30.74282 | 35044 ft | 519 kts | 126° |
| 2026-05-05 20:04 | 37.86788 | 30.81681 | 35029 ft | 518 kts | 126° |
| 2026-05-05 20:05 | 37.82556 | 30.89030 | 35036 ft | 518 kts | 126° |
| 2026-05-05 20:05 | 37.78292 | 30.96417 | 35044 ft | 518 kts | 126° |
| 2026-05-05 20:06 | 37.74054 | 31.03744 | 35054 ft | 519 kts | 126° |
| 2026-05-05 20:06 | 37.69817 | 31.11051 | 35054 ft | 517 kts | 126° |
| 2026-05-05 20:07 | 37.65554 | 31.18390 | 35046 ft | 518 kts | 126° |
| 2026-05-05 20:07 | 37.61322 | 31.25658 | 35044 ft | 518 kts | 126° |
| 2026-05-05 20:08 | 37.57042 | 31.32991 | 35058 ft | 517 kts | 126° |
| 2026-05-05 20:08 | 37.52792 | 31.40257 | 35066 ft | 518 kts | 126° |
| 2026-05-05 20:09 | 37.48504 | 31.47573 | 35070 ft | 519 kts | 126° |
| 2026-05-05 20:09 | 37.43715 | 31.55723 | 35072 ft | 518 kts | 126° |
| 2026-05-05 20:10 | 37.35115 | 31.70311 | 35077 ft | 521 kts | 127° |
| 2026-05-05 20:10 | 37.26538 | 31.84797 | 35073 ft | 517 kts | 127° |
| 2026-05-05 20:11 | 37.17881 | 31.99353 | 35074 ft | 526 kts | 127° |
| 2026-05-05 20:11 | 37.09185 | 32.13914 | 35043 ft | 515 kts | 127° |
| 2026-05-05 20:12 | 37.00577 | 32.28261 | 35077 ft | 524 kts | 127° |
| 2026-05-05 20:12 | 36.91778 | 32.42866 | 35070 ft | 524 kts | 127° |
| 2026-05-05 20:13 | 36.83036 | 32.57170 | 35037 ft | 519 kts | 128° |
| 2026-05-05 20:13 | 36.74057 | 32.71611 | 35039 ft | 530 kts | 129° |
| 2026-05-05 20:14 | 36.66856 | 32.83163 | 35029 ft | 519 kts | 129° |
| 2026-05-05 20:14 | 36.59476 | 32.94965 | 35019 ft | 521 kts | 129° |
| 2026-05-05 20:15 | 36.50430 | 33.09378 | 35014 ft | 530 kts | 129° |
| 2026-05-05 20:15 | 36.41547 | 33.23480 | 35037 ft | 516 kts | 129° |
| 2026-05-05 20:16 | 36.32991 | 33.38168 | 35033 ft | 531 kts | 123° |
| 2026-05-05 20:16 | 36.25032 | 33.53565 | 35018 ft | 534 kts | 123° |
| 2026-05-05 20:17 | 36.16925 | 33.69190 | 35016 ft | 544 kts | 124° |
| 2026-05-05 20:17 | 36.02167 | 33.97464 | 35032 ft | 534 kts | 124° |
| 2026-05-05 20:18 | 35.85968 | 34.28223 | 34962 ft | 543 kts | 124° |
| 2026-05-05 20:18 | 35.69424 | 34.59359 | 35015 ft | 539 kts | 125° |
| 2026-05-05 20:19 | 35.53140 | 34.89742 | 35021 ft | 540 kts | 126° |
| 2026-05-05 20:19 | 35.36343 | 35.20790 | 34948 ft | 544 kts | 126° |
| 2026-05-05 20:20 | 35.19860 | 35.51017 | 35102 ft | 535 kts | 127° |
| 2026-05-05 20:20 | 35.07955 | 35.72664 | 35017 ft | 547 kts | 128° |
| 2026-05-05 20:21 | 34.99557 | 35.87873 | 35048 ft | 535 kts | 128° |
| 2026-05-05 20:21 | 34.91195 | 36.02937 | 35055 ft | 545 kts | 128° |
| 2026-05-05 20:22 | 34.82654 | 36.18265 | 35049 ft | 540 kts | 128° |
| 2026-05-05 20:22 | 34.74227 | 36.33323 | 35048 ft | 543 kts | 128° |
| 2026-05-05 20:22 | 34.69957 | 36.40921 | 35189 ft | 549 kts | 129° |
| 2026-05-05 20:23 | 34.65701 | 36.48486 | 34983 ft | 546 kts | 129° |
| 2026-05-05 20:23 | 34.61469 | 36.56004 | 35048 ft | 535 kts | 129° |
| 2026-05-05 20:23 | 34.57281 | 36.63424 | 35115 ft | 532 kts | 129° |
| 2026-05-05 20:24 | 34.48750 | 36.78457 | 35008 ft | 548 kts | 130° |
| 2026-05-05 20:24 | 34.44463 | 36.85996 | 35118 ft | 545 kts | 130° |
| 2026-05-05 20:24 | 34.40163 | 36.93550 | 35046 ft | 539 kts | 130° |
| 2026-05-05 20:25 | 34.31670 | 37.08411 | 35000 ft | 543 kts | 130° |
| 2026-05-05 20:25 | 34.22480 | 37.24113 | 34957 ft | 541 kts | 135° |
| 2026-05-05 20:25 | 34.19976 | 37.27405 | 35013 ft | 528 kts | 143° |
| 2026-05-05 20:26 | 34.17191 | 37.30229 | 35014 ft | 523 kts | 151° |
| 2026-05-05 20:26 | 33.95069 | 37.42900 | 35110 ft | 505 kts | 164° |
| 2026-05-05 20:26 | 33.69288 | 37.57464 | 35340 ft | 506 kts | 162° |
| 2026-05-05 20:27 | 33.63193 | 37.61118 | 35335 ft | 510 kts | 161° |
| 2026-05-05 20:27 | 33.60018 | 37.63034 | 35163 ft | 510 kts | 161° |
| 2026-05-05 20:27 | 33.50725 | 37.68623 | 34974 ft | 504 kts | 162° |
| 2026-05-05 20:28 | 33.25607 | 37.83483 | 35022 ft | 507 kts | 163° |
| 2026-05-05 20:28 | 33.00159 | 37.98422 | 35102 ft | 505 kts | 163° |
| 2026-05-05 20:29 | 32.75256 | 38.12961 | 34959 ft | 496 kts | 164° |
| 2026-05-05 20:29 | 32.39724 | 38.33491 | 35166 ft | 507 kts | 163° |
| 2026-05-05 20:29 | 32.17855 | 38.46079 | 35019 ft | 500 kts | 163° |
| 2026-05-05 20:30 | 32.05356 | 38.53256 | 34908 ft | 492 kts | 164° |
| 2026-05-05 20:30 | 31.93099 | 38.60244 | 35312 ft | 487 kts | 164° |
| 2026-05-05 20:30 | 31.79886 | 38.67720 | 34587 ft | 497 kts | 164° |
| 2026-05-05 20:30 | 31.76797 | 38.69478 | 34805 ft | 492 kts | 164° |
| 2026-05-05 20:31 | 31.73697 | 38.71241 | 35013 ft | 495 kts | 163° |
| 2026-05-05 20:31 | 31.70662 | 38.73328 | 35040 ft | 510 kts | 155° |
| 2026-05-05 20:31 | 31.67880 | 38.75940 | 35039 ft | 521 kts | 146° |
| 2026-05-05 20:32 | 31.63006 | 38.82312 | 35048 ft | 528 kts | 139° |
| 2026-05-05 20:32 | 31.58231 | 38.88880 | 35047 ft | 531 kts | 139° |
| 2026-05-05 20:33 | 31.53417 | 38.95457 | 35045 ft | 529 kts | 140° |
| 2026-05-05 20:33 | 31.48634 | 39.01954 | 35047 ft | 527 kts | 140° |
| 2026-05-05 20:34 | 31.43830 | 39.08451 | 35046 ft | 527 kts | 140° |
| 2026-05-05 20:34 | 31.37147 | 39.17459 | 35055 ft | 528 kts | 140° |
| 2026-05-05 20:35 | 31.17874 | 39.43311 | 35038 ft | 525 kts | 140° |
| 2026-05-05 20:35 | 30.98871 | 39.68606 | 35073 ft | 523 kts | 140° |
| 2026-05-05 20:35 | 30.89186 | 39.81415 | 35271 ft | 527 kts | 140° |
| 2026-05-05 20:36 | 30.79455 | 39.94273 | 34871 ft | 526 kts | 140° |
| 2026-05-05 20:36 | 30.69530 | 40.07376 | 35523 ft | 519 kts | 141° |
| 2026-05-05 20:36 | 30.67117 | 40.10536 | 35271 ft | 525 kts | 141° |
| 2026-05-05 20:36 | 30.50080 | 40.32784 | 35916 ft | 527 kts | 141° |
| 2026-05-05 20:37 | 30.40224 | 40.45630 | 37153 ft | 526 kts | 141° |
| 2026-05-05 20:37 | 30.37803 | 40.48786 | 37034 ft | 522 kts | 141° |
| 2026-05-05 20:37 | 30.30932 | 40.57731 | 37035 ft | 517 kts | 141° |
| 2026-05-05 20:38 | 30.11666 | 40.82620 | 36977 ft | 521 kts | 142° |
| 2026-05-05 20:38 | 30.02008 | 40.95056 | 37120 ft | 518 kts | 142° |
| 2026-05-05 20:38 | 29.92479 | 41.07293 | 37100 ft | 511 kts | 142° |
| 2026-05-05 20:39 | 29.80990 | 41.21972 | 37052 ft | 516 kts | 142° |
| 2026-05-05 20:39 | 29.71280 | 41.34325 | 37009 ft | 521 kts | 142° |
| 2026-05-05 20:40 | 29.61652 | 41.46564 | 37028 ft | 516 kts | 142° |
| 2026-05-05 20:40 | 29.51908 | 41.58883 | 37018 ft | 522 kts | 142° |
| 2026-05-05 20:41 | 29.42233 | 41.71108 | 36995 ft | 517 kts | 143° |
| 2026-05-05 20:41 | 29.32531 | 41.83308 | 36997 ft | 519 kts | 143° |
| 2026-05-05 20:42 | 29.22833 | 41.95479 | 37011 ft | 518 kts | 143° |
| 2026-05-05 20:42 | 29.13061 | 42.07683 | 36995 ft | 525 kts | 143° |
| 2026-05-05 20:43 | 29.03250 | 42.19936 | 36987 ft | 515 kts | 143° |
| 2026-05-05 20:43 | 28.93456 | 42.32093 | 37001 ft | 526 kts | 142° |
| 2026-05-05 20:44 | 28.83511 | 42.44421 | 37006 ft | 524 kts | 142° |
| 2026-05-05 20:44 | 28.73784 | 42.56457 | 37011 ft | 518 kts | 143° |
| 2026-05-05 20:45 | 28.58930 | 42.74727 | 36980 ft | 523 kts | 143° |
| 2026-05-05 20:45 | 28.49089 | 42.86805 | 36997 ft | 520 kts | 143° |
| 2026-05-05 20:46 | 28.39180 | 42.98909 | 36997 ft | 525 kts | 143° |
| 2026-05-05 20:46 | 28.29341 | 43.10923 | 36997 ft | 515 kts | 143° |
| 2026-05-05 20:47 | 28.15054 | 43.28252 | 36990 ft | 525 kts | 143° |
| 2026-05-05 20:47 | 27.95060 | 43.52447 | 37027 ft | 517 kts | 143° |
| 2026-05-05 20:48 | 27.85136 | 43.64408 | 37128 ft | 510 kts | 143° |
| 2026-05-05 20:48 | 27.82615 | 43.67233 | 36975 ft | 512 kts | 146° |
| 2026-05-05 20:48 | 27.77461 | 43.72844 | 36980 ft | 512 kts | 146° |
| 2026-05-05 20:49 | 27.72374 | 43.78381 | 36978 ft | 510 kts | 146° |
| 2026-05-05 20:49 | 27.67247 | 43.83955 | 36976 ft | 511 kts | 146° |
| 2026-05-05 20:50 | 27.62127 | 43.89516 | 36976 ft | 513 kts | 146° |
| 2026-05-05 20:50 | 27.56978 | 43.95104 | 36982 ft | 510 kts | 146° |
| 2026-05-05 20:51 | 27.51844 | 44.00666 | 36989 ft | 512 kts | 146° |
| 2026-05-05 20:51 | 27.44421 | 44.08699 | 36982 ft | 511 kts | 146° |
| 2026-05-05 20:52 | 27.34051 | 44.19886 | 36986 ft | 516 kts | 146° |
| 2026-05-05 20:52 | 27.23775 | 44.30954 | 36975 ft | 514 kts | 146° |
| 2026-05-05 20:53 | 27.13441 | 44.42047 | 36960 ft | 517 kts | 146° |
| 2026-05-05 20:53 | 27.03018 | 44.53206 | 36955 ft | 517 kts | 145° |
| 2026-05-05 20:54 | 26.92665 | 44.64270 | 36975 ft | 515 kts | 146° |
| 2026-05-05 20:54 | 26.82088 | 44.75522 | 36948 ft | 521 kts | 146° |
| 2026-05-05 20:55 | 26.71708 | 44.86567 | 36958 ft | 511 kts | 146° |
| 2026-05-05 20:55 | 26.61301 | 44.97573 | 36978 ft | 522 kts | 146° |
| 2026-05-05 20:56 | 26.50752 | 45.08729 | 36961 ft | 515 kts | 145° |
| 2026-05-05 20:56 | 26.40338 | 45.19696 | 36972 ft | 523 kts | 145° |
| 2026-05-05 20:57 | 26.22612 | 45.38320 | 36926 ft | 519 kts | 145° |
| 2026-05-05 20:57 | 26.06598 | 45.55076 | 37041 ft | 515 kts | 145° |
| 2026-05-05 20:58 | 25.96009 | 45.66092 | 36930 ft | 525 kts | 145° |
| 2026-05-05 20:58 | 25.85450 | 45.77079 | 36979 ft | 516 kts | 145° |
| 2026-05-05 20:59 | 25.74917 | 45.87995 | 36975 ft | 521 kts | 145° |
| 2026-05-05 20:59 | 25.64384 | 45.98893 | 36961 ft | 515 kts | 145° |
| 2026-05-05 21:00 | 25.53886 | 46.09722 | 36963 ft | 517 kts | 145° |
| 2026-05-05 21:00 | 25.43308 | 46.20606 | 36967 ft | 516 kts | 144° |
| 2026-05-05 21:01 | 25.32860 | 46.31332 | 36973 ft | 516 kts | 144° |
| 2026-05-05 21:01 | 25.22362 | 46.42082 | 36980 ft | 514 kts | 144° |
| 2026-05-05 21:02 | 25.11872 | 46.52796 | 36973 ft | 514 kts | 144° |
| 2026-05-05 21:02 | 25.01396 | 46.63476 | 36957 ft | 512 kts | 143° |
| 2026-05-05 21:03 | 24.92205 | 46.75750 | 36949 ft | 524 kts | 133° |